Time;durP1;ratioP1;P1;durP2;ratioP2;P2;SDS_P1;SDS_P2;PMS_P1;PMS_P2;Temp;Humidity;BMP_temperature;BMP_pressure;BME280_temperature;BME280_humidity;BME280_pressure;Samples;Min_cycle;Max_cycle;Signal;HPM_P1;HPM_P2
2024/01/29 00:13:10;;;;;;;8.93;4.03;;;4.00;99.90;;;;;;5048952;23;20056;-94
2024/01/29 00:15:49;;;;;;;11.73;4.90;;;3.90;99.90;;;;;;5445864;23;20041;-94
2024/01/29 00:25:10;;;;;;;10.60;4.67;;;3.70;99.90;;;;;;5052625;23;20047;-94
2024/01/29 00:27:39;;;;;;;10.43;4.47;;;3.80;99.90;;;;;;4940416;29;20122;-94
2024/01/29 00:30:08;;;;;;;11.27;4.50;;;3.20;99.90;;;;;;4944962;23;20148;-94
2024/01/29 00:32:44;;;;;;;10.20;4.23;;;3.90;99.90;;;;;;4952564;23;20047;-94
2024/01/29 00:39:16;;;;;;;10.53;4.73;;;4.90;99.90;;;;;;4943033;29;20407;-95
2024/01/29 00:54:13;;;;;;;11.73;4.73;;;2.80;99.90;;;;;;4966513;23;20594;-93
2024/01/29 00:56:38;;;;;;;11.97;4.47;;;3.50;99.90;;;;;;4921539;29;20076;-93
2024/01/29 00:59:07;;;;;;;11.90;4.53;;;4.50;99.90;;;;;;4922541;29;20044;-94
2024/01/29 01:01:42;;;;;;;10.73;4.60;;;3.50;99.90;;;;;;4920987;29;20043;-94
2024/01/29 01:04:08;;;;;;;9.53;4.30;;;2.30;99.90;;;;;;4921338;29;20087;-92
2024/01/29 01:06:42;;;;;;;10.97;4.30;;;3.20;99.90;;;;;;4921012;29;20067;-95
2024/01/29 01:09:11;;;;;;;10.30;4.40;;;3.10;99.90;;;;;;4920888;29;20047;-93
2024/01/29 01:11:37;;;;;;;10.27;4.67;;;2.90;99.90;;;;;;4921289;29;20078;-94
2024/01/29 01:14:06;;;;;;;9.87;4.50;;;3.30;99.90;;;;;;4936656;29;20047;-94
2024/01/29 01:16:34;;;;;;;10.27;4.60;;;2.70;99.90;;;;;;4921833;29;20187;-93
2024/01/29 01:19:07;;;;;;;9.97;4.27;;;4.60;99.90;;;;;;4921676;29;20051;-94
2024/01/29 01:21:36;;;;;;;9.63;4.60;;;3.00;99.90;;;;;;4923346;29;20507;-93
2024/01/29 01:24:04;;;;;;;9.97;4.20;;;4.30;99.90;;;;;;4928678;29;20052;-94
2024/01/29 01:26:35;;;;;;;10.33;4.60;;;3.10;99.90;;;;;;4955315;23;20059;-94
2024/01/29 01:29:04;;;;;;;10.97;4.53;;;3.50;99.90;;;;;;4929857;23;20055;-94
2024/01/29 01:32:02;;;;;;;9.70;4.60;;;3.90;99.90;;;;;;4941758;23;20499;-94
2024/01/29 01:34:31;;;;;;;10.10;4.60;;;4.00;99.90;;;;;;4947578;23;20054;-94
2024/01/29 01:37:05;;;;;;;9.70;4.30;;;3.00;99.90;;;;;;4947198;23;20058;-94
2024/01/29 01:40:07;;;;;;;9.20;4.27;;;2.90;99.90;;;;;;4923297;23;20115;-93
2024/01/29 01:42:59;;;;;;;11.23;4.20;;;2.90;99.90;;;;;;4892325;23;20085;-93
2024/01/29 01:45:28;;;;;;;10.73;4.37;;;3.20;99.90;;;;;;4942038;23;20215;-94
2024/01/29 01:47:55;;;;;;;9.87;4.57;;;1.90;99.90;;;;;;4973408;28;20051;-94
2024/01/29 01:50:27;;;;;;;10.03;4.40;;;2.20;99.90;;;;;;4958994;28;20042;-94
2024/01/29 01:52:59;;;;;;;9.73;4.30;;;3.60;99.90;;;;;;4959984;28;20047;-94
2024/01/29 01:56:04;;;;;;;9.07;4.37;;;3.30;99.90;;;;;;4981718;23;20515;-94
2024/01/29 01:58:30;;;;;;;9.82;4.32;;;2.20;99.90;;;;;;4919463;29;20079;-94
2024/01/29 02:00:56;;;;;;;10.37;4.43;;;4.10;99.90;;;;;;4919941;29;20059;-94
2024/01/29 02:03:22;;;;;;;10.47;4.70;;;2.90;99.90;;;;;;4918713;29;20066;-94
2024/01/29 02:05:48;;;;;;;10.03;4.50;;;4.00;99.90;;;;;;4919594;29;20062;-94
2024/01/29 02:11:43;;;;;;;11.03;4.93;;;2.20;99.90;;;;;;4960609;23;20067;-94
2024/01/29 02:14:18;;;;;;;9.77;4.40;;;2.50;99.90;;;;;;4939495;29;20050;-94
2024/01/29 02:16:53;;;;;;;10.90;4.23;;;3.70;99.90;;;;;;4939846;29;20071;-94
2024/01/29 02:19:25;;;;;;;10.50;4.27;;;1.70;99.90;;;;;;4939394;29;20043;-94
2024/01/29 02:21:55;;;;;;;10.30;4.67;;;4.20;99.90;;;;;;4938729;29;20050;-94
2024/01/29 02:24:23;;;;;;;10.33;4.67;;;2.30;99.90;;;;;;4938751;29;20126;-94
2024/01/29 02:26:58;;;;;;;10.33;4.47;;;2.00;99.90;;;;;;4939205;29;20451;-95
2024/01/29 02:29:27;;;;;;;11.03;4.13;;;2.90;99.90;;;;;;4938425;29;20078;-94
2024/01/29 02:31:59;;;;;;;10.63;4.37;;;1.80;99.90;;;;;;4938233;29;20090;-92
2024/01/29 02:34:34;;;;;;;10.90;4.33;;;2.60;99.90;;;;;;4953711;29;20043;-94
2024/01/29 02:37:03;;;;;;;9.97;4.37;;;0.70;99.90;;;;;;4949639;29;20078;-94
2024/01/29 02:39:52;;;;;;;10.97;4.40;;;1.90;99.90;;;;;;5136800;23;20018;-92
2024/01/29 02:42:23;;;;;;;12.33;3.97;;;3.40;99.90;;;;;;4917066;29;20143;-93
2024/01/29 02:47:29;;;;;;;9.57;4.17;;;1.90;99.90;;;;;;4941483;23;20183;-96
2024/01/29 02:52:29;;;;;;;10.60;4.27;;;1.90;99.90;;;;;;4960395;23;20140;-95
2024/01/29 02:54:57;;;;;;;9.63;4.03;;;3.60;99.90;;;;;;4939280;29;20043;-94
2024/01/29 03:00:01;;;;;;;10.10;4.20;;;2.20;99.90;;;;;;4959475;23;20063;-93
2024/01/29 03:03:05;;;;;;;10.33;3.93;;;2.30;99.90;;;;;;4938828;29;20075;-94
2024/01/29 03:05:34;;;;;;;9.77;3.95;;;3.80;99.90;;;;;;4943323;29;20047;-95
2024/01/29 03:08:03;;;;;;;10.53;4.30;;;2.70;99.90;;;;;;4946577;29;20472;-94
2024/01/29 03:10:32;;;;;;;9.60;3.90;;;2.90;99.90;;;;;;4954131;29;20455;-94
2024/01/29 03:13:16;;;;;;;9.87;4.13;;;2.70;99.90;;;;;;4947029;23;20147;-95
2024/01/29 03:15:55;;;;;;;;;;;4.20;99.90;;;;;;4956213;23;20142;-95
2024/01/29 03:18:24;;;;;;;10.70;4.03;;;2.50;99.90;;;;;;4938529;23;19961;-95
2024/01/29 03:31:07;;;;;;;9.80;3.70;;;3.30;99.90;;;;;;4977746;28;20096;-94
2024/01/29 03:33:32;;;;;;;10.83;4.20;;;5.00;99.90;;;;;;4960613;23;20069;-94
2024/01/29 03:36:06;;;;;;;10.43;4.17;;;3.60;99.90;;;;;;4938243;29;20389;-94
2024/01/29 03:39:40;;;;;;;9.30;4.10;;;3.50;99.90;;;;;;4901592;29;20524;-94
2024/01/29 03:43:06;;;;;;;10.53;3.87;;;4.10;99.90;;;;;;4903693;29;20064;-94
2024/01/29 03:45:36;;;;;;;11.47;3.73;;;3.60;99.90;;;;;;4945687;23;20071;-94
2024/01/29 03:48:06;;;;;;;9.60;4.23;;;4.60;99.90;;;;;;5009399;23;20055;-94
2024/01/29 03:54:13;;;;;;;10.27;4.13;;;2.90;99.90;;;;;;4937859;29;20047;-95
2024/01/29 03:56:43;;;;;;;9.23;3.73;;;4.00;99.90;;;;;;4924618;29;20393;-94
2024/01/29 03:59:17;;;;;;;10.60;4.27;;;5.70;99.90;;;;;;4925269;29;20044;-95
2024/01/29 04:01:43;;;;;;;10.53;4.20;;;5.70;99.90;;;;;;4923388;29;20058;-94
2024/01/29 04:04:27;;;;;;;11.43;3.80;;;5.20;99.90;;;;;;4937259;23;20047;-95
2024/01/29 04:06:56;;;;;;;12.37;4.30;;;4.40;99.90;;;;;;4942833;29;20090;-94
2024/01/29 04:09:25;;;;;;;11.33;4.40;;;4.50;99.90;;;;;;4941331;29;20447;-95
2024/01/29 04:11:54;;;;;;;10.70;4.53;;;5.60;99.90;;;;;;4941492;29;20053;-94
2024/01/29 04:14:54;;;;;;;10.37;4.43;;;4.50;99.90;;;;;;4941020;29;20054;-96
2024/01/29 04:17:29;;;;;;;11.17;4.30;;;4.30;99.90;;;;;;4941652;29;20051;-95
2024/01/29 04:20:01;;;;;;;10.50;3.97;;;4.60;99.90;;;;;;4940800;29;20043;-93
2024/01/29 04:22:32;;;;;;;9.80;4.27;;;4.40;99.90;;;;;;4941504;29;20047;-95
2024/01/29 04:25:04;;;;;;;9.63;4.07;;;5.80;99.90;;;;;;4941455;29;20051;-94
2024/01/29 04:27:30;;;;;;;11.60;3.97;;;4.30;99.90;;;;;;4940720;29;20051;-94
2024/01/29 04:30:01;;;;;;;10.03;4.17;;;5.30;99.90;;;;;;4940976;29;20028;-94
2024/01/29 04:32:32;;;;;;;9.67;3.77;;;5.20;99.90;;;;;;4940753;29;20050;-94
2024/01/29 04:35:03;;;;;;;9.93;4.03;;;5.00;99.90;;;;;;4940425;29;20493;-95
2024/01/29 04:37:57;;;;;;;11.30;4.10;;;4.30;99.90;;;;;;4941263;29;20055;-95
2024/01/29 04:40:24;;;;;;;9.63;4.18;;;3.60;99.90;;;;;;4941224;29;20054;-94
2024/01/29 04:42:52;;;;;;;9.17;4.00;;;4.60;99.90;;;;;;4941095;29;20043;-94
2024/01/29 04:45:25;;;;;;;11.67;4.20;;;4.60;99.90;;;;;;4940287;29;20439;-95
2024/01/29 04:48:00;;;;;;;11.73;4.27;;;4.10;99.90;;;;;;4941173;29;20051;-94
2024/01/29 04:50:29;;;;;;;11.30;4.50;;;4.40;99.90;;;;;;4940487;29;20129;-95
2024/01/29 04:53:07;;;;;;;10.17;4.63;;;4.60;99.90;;;;;;4940376;29;20047;-95
2024/01/29 04:55:38;;;;;;;11.10;4.50;;;4.90;99.90;;;;;;4952453;29;20035;-93
2024/01/29 05:00:42;;;;;;;10.00;4.13;;;3.60;99.90;;;;;;4983148;23;20720;-94
2024/01/29 05:03:33;;;;;;;10.37;4.37;;;5.00;99.90;;;;;;4943857;29;20111;-94
2024/01/29 05:06:01;;;;;;;11.33;4.53;;;2.40;99.90;;;;;;4919901;29;20122;-94
2024/01/29 05:08:30;;;;;;;10.53;4.57;;;2.50;99.90;;;;;;4921206;29;20059;-94
2024/01/29 05:10:58;;;;;;;10.47;4.33;;;3.70;99.90;;;;;;4922003;29;20051;-94
2024/01/29 05:13:27;;;;;;;11.60;4.10;;;3.80;99.90;;;;;;4935305;23;20131;-94
2024/01/29 05:23:39;;;;;;;12.27;4.53;;;3.00;99.90;;;;;;4917024;29;20088;-95
2024/01/29 05:26:04;;;;;;;10.70;4.57;;;3.70;99.90;;;;;;4900491;29;20048;-95
2024/01/29 05:28:38;;;;;;;10.37;4.43;;;3.40;99.90;;;;;;4903953;29;20047;-94
2024/01/29 05:31:04;;;;;;;12.10;4.77;;;4.70;99.90;;;;;;4925717;29;20044;-95
2024/01/29 05:33:30;;;;;;;10.10;4.27;;;3.70;99.90;;;;;;4902486;29;20046;-94
2024/01/29 05:36:18;;;;;;;11.20;4.43;;;4.40;99.90;;;;;;4937286;23;20055;-94
2024/01/29 05:39:11;;;;;;;11.67;5.10;;;2.80;99.90;;;;;;4924247;29;20146;-94
2024/01/29 05:41:43;;;;;;;11.80;5.03;;;3.60;99.90;;;;;;4924724;29;20448;-95
2024/01/29 05:44:11;;;;;;;10.80;4.50;;;2.50;99.90;;;;;;4922721;29;20609;-95
2024/01/29 05:46:55;;;;;;;10.83;4.67;;;2.80;99.90;;;;;;4921795;29;20521;-95
2024/01/29 05:49:32;;;;;;;10.77;4.43;;;4.10;99.90;;;;;;4944803;23;20118;-94
2024/01/29 05:56:31;;;;;;;10.73;4.53;;;5.00;99.90;;;;;;4971389;23;20134;-95
2024/01/29 05:59:23;;;;;;;14.83;4.60;;;4.10;99.90;;;;;;4934986;29;20377;-93
2024/01/29 06:01:52;;;;;;;11.20;4.87;;;3.80;99.90;;;;;;4921645;29;20619;-94
2024/01/29 06:04:19;;;;;;;11.93;4.53;;;4.00;99.90;;;;;;4924447;29;20555;-95
2024/01/29 06:06:51;;;;;;;10.30;4.53;;;3.60;99.90;;;;;;4919946;29;20134;-94
2024/01/29 06:09:22;;;;;;;10.70;4.67;;;3.90;99.90;;;;;;4935282;29;20051;-94
2024/01/29 06:11:50;;;;;;;11.77;5.00;;;5.40;99.90;;;;;;4921127;29;20086;-95
2024/01/29 06:14:22;;;;;;;12.13;4.77;;;3.70;99.90;;;;;;4920430;29;20035;-93
2024/01/29 06:16:57;;;;;;;10.83;4.77;;;5.60;99.90;;;;;;4918509;29;20040;-94
2024/01/29 06:19:26;;;;;;;12.83;4.50;;;5.20;99.90;;;;;;4920506;29;20376;-94
2024/01/29 06:21:52;;;;;;;12.03;4.40;;;4.70;99.90;;;;;;4922650;29;20040;-96
2024/01/29 06:24:20;;;;;;;11.13;4.67;;;3.50;99.90;;;;;;4919122;29;20048;-91
2024/01/29 06:26:52;;;;;;;12.47;4.63;;;3.70;99.90;;;;;;4918545;29;20058;-90
2024/01/29 06:29:30;;;;;;;11.77;4.80;;;4.00;99.90;;;;;;4918224;29;20036;-90
2024/01/29 06:32:02;;;;;;;14.90;5.00;;;4.50;99.90;;;;;;4916015;29;20060;-91
2024/01/29 06:34:38;;;;;;;13.07;4.90;;;4.30;99.90;;;;;;4919271;29;20127;-89
2024/01/29 06:37:20;;;;;;;12.23;4.30;;;5.10;99.90;;;;;;4935810;29;20075;-90
2024/01/29 06:39:46;;;;;;;14.87;5.00;;;4.40;99.90;;;;;;4923686;29;20055;-94
2024/01/29 06:42:12;;;;;;;13.03;4.60;;;4.40;99.90;;;;;;4924494;29;20441;-88
2024/01/29 06:44:41;;;;;;;11.17;4.67;;;3.20;99.90;;;;;;4924959;29;20055;-92
2024/01/29 06:47:09;;;;;;;13.03;4.80;;;5.30;99.90;;;;;;4922632;29;20039;-88
2024/01/29 06:49:58;;;;;;;12.10;4.67;;;4.40;99.90;;;;;;4921745;29;20048;-90
2024/01/29 06:52:25;;;;;;;12.50;4.93;;;4.40;99.90;;;;;;4919298;29;20044;-87
2024/01/29 06:54:51;;;;;;;13.03;4.73;;;4.00;99.90;;;;;;4937106;29;20103;-87
2024/01/29 06:57:17;;;;;;;10.40;4.00;;;4.20;99.90;;;;;;4920717;29;20060;-87
2024/01/29 06:59:42;;;;;;;10.50;4.83;;;4.20;99.90;;;;;;4920275;29;20055;-87
2024/01/29 07:02:08;;;;;;;10.10;4.27;;;4.10;99.90;;;;;;4921452;29;20036;-87
2024/01/29 07:04:34;;;;;;;10.73;4.43;;;4.20;99.90;;;;;;4921598;29;20052;-86
2024/01/29 07:07:00;;;;;;;10.40;4.00;;;4.20;99.90;;;;;;4919497;29;20052;-85
2024/01/29 07:09:26;;;;;;;10.30;4.17;;;5.90;99.90;;;;;;4921896;29;20046;-85
2024/01/29 07:11:51;;;;;;;9.87;3.77;;;4.20;99.90;;;;;;4920646;29;20130;-85
2024/01/29 07:14:17;;;;;;;10.90;3.60;;;4.80;99.90;;;;;;4920594;29;20407;-85
2024/01/29 07:16:43;;;;;;;9.73;3.87;;;4.20;99.90;;;;;;4921195;29;20459;-85
2024/01/29 07:19:09;;;;;;;11.23;4.27;;;4.20;99.90;;;;;;4919916;29;20048;-85
2024/01/29 07:21:34;;;;;;;13.87;4.23;;;4.20;99.90;;;;;;4938143;29;20050;-85
2024/01/29 07:24:00;;;;;;;9.57;3.97;;;4.20;99.90;;;;;;4921245;29;20083;-85
2024/01/29 07:26:26;;;;;;;12.03;4.40;;;4.10;99.90;;;;;;4920401;29;20047;-84
2024/01/29 07:28:51;;;;;;;11.07;3.90;;;4.10;99.90;;;;;;4921354;29;20043;-84
2024/01/29 07:31:17;;;;;;;12.23;4.50;;;4.10;99.90;;;;;;4921307;29;20051;-83
2024/01/29 07:33:43;;;;;;;12.33;4.33;;;4.10;99.90;;;;;;4935758;29;20051;-84
2024/01/29 07:36:09;;;;;;;10.70;4.37;;;4.50;99.90;;;;;;4920611;29;20102;-83
2024/01/29 07:38:35;;;;;;;10.13;4.07;;;4.10;99.90;;;;;;4921191;29;20047;-85
2024/01/29 07:41:01;;;;;;;11.07;3.97;;;4.70;99.90;;;;;;4917088;29;20477;-84
2024/01/29 07:43:27;;;;;;;10.07;3.80;;;4.20;99.90;;;;;;4936995;29;20105;-84
2024/01/29 07:45:52;;;;;;;10.57;4.03;;;4.30;99.90;;;;;;4920155;29;20070;-84
2024/01/29 07:48:18;;;;;;;10.30;4.13;;;4.20;99.90;;;;;;4919416;29;20052;-84
2024/01/29 07:50:44;;;;;;;11.53;4.10;;;4.20;99.90;;;;;;4920443;29;20146;-85
2024/01/29 07:53:09;;;;;;;12.70;5.37;;;5.20;99.90;;;;;;4920322;29;20503;-83
2024/01/29 07:55:35;;;;;;;10.77;5.30;;;4.30;99.90;;;;;;4919955;29;20404;-84
2024/01/29 07:58:00;;;;;;;11.07;5.23;;;4.30;99.90;;;;;;4920026;29;20062;-84
2024/01/29 08:00:26;;;;;;;12.10;5.30;;;4.40;99.90;;;;;;4920365;29;20047;-83
2024/01/29 08:02:52;;;;;;;11.17;5.00;;;4.40;99.90;;;;;;4919184;29;20051;-84
2024/01/29 08:05:17;;;;;;;11.60;5.40;;;4.50;99.90;;;;;;4920001;29;20055;-84
2024/01/29 08:07:43;;;;;;;12.77;5.33;;;4.50;99.90;;;;;;4920409;29;20047;-84
2024/01/29 08:10:08;;;;;;;11.27;4.90;;;4.60;99.90;;;;;;4919166;29;20054;-85
2024/01/29 08:12:34;;;;;;;11.70;5.50;;;4.70;99.90;;;;;;4920479;29;20039;-86
2024/01/29 08:15:00;;;;;;;12.63;5.80;;;4.80;99.90;;;;;;4918871;29;20171;-86
2024/01/29 08:17:26;;;;;;;12.27;5.40;;;4.80;99.90;;;;;;4919381;29;20138;-89
2024/01/29 08:19:51;;;;;;;12.17;5.17;;;4.90;99.90;;;;;;4934652;29;20066;-90
2024/01/29 08:22:18;;;;;;;14.47;5.57;;;4.90;99.90;;;;;;4919507;29;20428;-86
2024/01/29 08:24:43;;;;;;;12.17;5.47;;;5.00;99.90;;;;;;4919038;29;20058;-86
2024/01/29 08:27:09;;;;;;;11.73;5.23;;;5.00;99.90;;;;;;4919735;29;20051;-86
2024/01/29 08:29:35;;;;;;;14.80;5.33;;;5.10;99.90;;;;;;4919327;29;20127;-86
2024/01/29 08:32:00;;;;;;;12.10;5.30;;;5.60;99.90;;;;;;4920031;29;20587;-86
2024/01/29 08:34:29;;;;;;;12.67;5.50;;;6.20;99.90;;;;;;4920320;29;20047;-86
2024/01/29 08:36:55;;;;;;;11.63;5.47;;;5.20;99.90;;;;;;4919060;29;20051;-86
2024/01/29 08:39:21;;;;;;;13.10;5.30;;;5.30;99.90;;;;;;4920655;29;20040;-86
2024/01/29 08:41:47;;;;;;;10.63;5.17;;;5.40;99.90;;;;;;4920027;29;20480;-86
2024/01/29 08:44:12;;;;;;;11.57;5.13;;;5.40;99.90;;;;;;4935812;29;20043;-86
2024/01/29 08:46:38;;;;;;;10.87;5.00;;;5.40;99.90;;;;;;4936798;29;20056;-86
2024/01/29 08:49:03;;;;;;;11.13;5.60;;;5.50;99.90;;;;;;4935149;29;20048;-86
2024/01/29 08:51:29;;;;;;;11.33;5.10;;;5.50;99.90;;;;;;4919200;29;20063;-86
2024/01/29 08:53:56;;;;;;;12.07;5.07;;;5.60;99.90;;;;;;4936498;29;20090;-86
2024/01/29 08:56:21;;;;;;;12.30;5.47;;;5.90;99.90;;;;;;4920400;29;20051;-86
2024/01/29 08:58:47;;;;;;;10.57;5.03;;;5.70;99.90;;;;;;4918765;29;20525;-86
2024/01/29 09:01:13;;;;;;;10.60;5.20;;;6.80;99.90;;;;;;4919308;29;20407;-86
2024/01/29 09:03:38;;;;;;;11.63;5.63;;;7.30;99.90;;;;;;4935420;29;20134;-86
2024/01/29 09:06:04;;;;;;;12.50;5.93;;;5.90;99.90;;;;;;4918250;29;20052;-86
2024/01/29 09:08:31;;;;;;;16.13;5.77;;;6.00;99.90;;;;;;4936617;29;20123;-86
2024/01/29 09:10:57;;;;;;;11.40;5.10;;;6.00;99.90;;;;;;4936259;29;20458;-86
2024/01/29 09:13:22;;;;;;;11.40;4.80;;;6.10;99.90;;;;;;4918546;29;20079;-86
2024/01/29 09:15:48;;;;;;;10.67;4.80;;;6.10;99.90;;;;;;4919486;29;20043;-87
2024/01/29 09:18:13;;;;;;;10.80;5.10;;;6.20;99.90;;;;;;4918868;29;20098;-86
2024/01/29 09:20:39;;;;;;;11.43;5.10;;;6.20;99.90;;;;;;4918321;29;20059;-86
2024/01/29 09:23:05;;;;;;;11.87;4.80;;;6.20;99.90;;;;;;4919136;29;20464;-86
2024/01/29 09:25:30;;;;;;;9.87;4.27;;;6.20;99.90;;;;;;4918991;29;20047;-86
2024/01/29 09:27:56;;;;;;;11.37;4.53;;;6.20;99.90;;;;;;4934153;29;20050;-86
2024/01/29 09:30:21;;;;;;;12.00;5.13;;;6.20;99.90;;;;;;4919066;29;20484;-87
2024/01/29 09:32:47;;;;;;;10.20;4.10;;;6.30;99.90;;;;;;4917874;29;20047;-86
2024/01/29 09:35:13;;;;;;;11.30;4.73;;;6.30;99.90;;;;;;4918236;29;20131;-88
2024/01/29 09:37:41;;;;;;;12.20;4.77;;;7.80;99.90;;;;;;4919119;29;20510;-90
2024/01/29 09:40:11;;;;;;;12.83;4.90;;;7.30;99.90;;;;;;4933336;29;20043;-89
2024/01/29 09:42:46;;;;;;;12.17;5.13;;;6.40;99.90;;;;;;4918307;29;20507;-88
2024/01/29 09:45:18;;;;;;;12.70;4.90;;;6.70;99.90;;;;;;4924943;29;20135;-88
2024/01/29 09:47:43;;;;;;;12.60;4.73;;;7.00;99.90;;;;;;4909286;29;20044;-85
2024/01/29 09:50:11;;;;;;;12.37;5.10;;;6.50;99.90;;;;;;4907699;29;20103;-87
2024/01/29 09:52:39;;;;;;;12.03;4.60;;;7.80;99.90;;;;;;4909134;29;20112;-88
2024/01/29 09:55:11;;;;;;;11.87;4.87;;;6.70;99.90;;;;;;4917576;29;20055;-89
2024/01/29 09:57:38;;;;;;;13.40;4.93;;;7.70;99.90;;;;;;4918441;29;20055;-89
2024/01/29 10:00:04;;;;;;;12.10;4.80;;;6.70;99.90;;;;;;4918683;29;20050;-89
2024/01/29 10:02:33;;;;;;;12.83;5.63;;;6.80;99.90;;;;;;4918398;29;20098;-89
2024/01/29 10:04:59;;;;;;;11.27;5.37;;;6.90;99.90;;;;;;4918294;29;20040;-89
2024/01/29 10:07:24;;;;;;;12.37;6.10;;;6.90;99.90;;;;;;4918767;29;20050;-90
2024/01/29 10:09:53;;;;;;;14.73;5.90;;;7.00;99.90;;;;;;4918409;29;20377;-89
2024/01/29 10:12:23;;;;;;;12.13;5.30;;;7.50;99.90;;;;;;4918034;29;20055;-88
2024/01/29 10:14:48;;;;;;;12.37;5.37;;;7.10;99.90;;;;;;4908354;29;20048;-88
2024/01/29 10:17:14;;;;;;;11.27;5.10;;;8.10;99.90;;;;;;4902508;29;20460;-88
2024/01/29 10:19:43;;;;;;;14.03;5.97;;;7.20;99.90;;;;;;4899732;29;20048;-86
2024/01/29 10:22:12;;;;;;;11.80;5.55;;;7.30;99.90;;;;;;4898485;29;20083;-86
2024/01/29 10:24:38;;;;;;;14.93;5.50;;;7.30;99.90;;;;;;4899027;29;20510;-89
2024/01/29 10:27:08;;;;;;;12.23;5.47;;;7.40;99.90;;;;;;4899177;29;20048;-88
2024/01/29 10:29:47;;;;;;;12.57;5.63;;;7.90;99.90;;;;;;4898951;29;20067;-85
2024/01/29 10:32:13;;;;;;;13.17;5.70;;;7.50;99.90;;;;;;4899089;29;20486;-89
2024/01/29 10:34:39;;;;;;;12.37;5.33;;;7.50;99.90;;;;;;4915470;29;20084;-88
2024/01/29 10:37:06;;;;;;;11.90;5.33;;;7.60;99.90;;;;;;4926227;29;20078;-89
2024/01/29 10:39:34;;;;;;;11.00;5.07;;;7.60;99.90;;;;;;4918564;29;20707;-87
2024/01/29 10:42:01;;;;;;;11.27;5.53;;;7.70;99.90;;;;;;4918072;29;20048;-88
2024/01/29 10:44:32;;;;;;;13.27;5.78;;;7.70;99.90;;;;;;4917834;29;20047;-86
2024/01/29 10:46:59;;;;;;;11.68;5.68;;;7.80;99.90;;;;;;4918004;29;20404;-85
2024/01/29 10:49:28;;;;;;;12.30;5.70;;;7.80;99.90;;;;;;4918281;29;20572;-86
2024/01/29 10:51:55;;;;;;;17.37;6.40;;;7.80;99.90;;;;;;4932789;29;20083;-86
2024/01/29 10:54:22;;;;;;;13.50;5.65;;;7.90;99.90;;;;;;4915263;29;20048;-85
2024/01/29 10:56:49;;;;;;;12.70;5.82;;;7.90;99.90;;;;;;4917663;29;20427;-85
2024/01/29 10:59:16;;;;;;;14.93;5.83;;;8.00;99.90;;;;;;4916467;29;20142;-85
2024/01/29 11:01:42;;;;;;;14.30;5.25;;;8.10;99.90;;;;;;4917880;29;20492;-85
2024/01/29 11:04:10;;;;;;;12.63;5.90;;;8.60;99.90;;;;;;4916601;29;20051;-85
2024/01/29 11:06:43;;;;;;;12.80;5.90;;;8.30;99.90;;;;;;4933205;29;20058;-85
2024/01/29 11:09:12;;;;;;;12.35;5.68;;;8.30;99.90;;;;;;4917282;29;20126;-86
2024/01/29 11:11:41;;;;;;;13.23;7.18;;;8.30;99.90;;;;;;4917208;29;20459;-86
2024/01/29 11:14:10;;;;;;;13.18;5.95;;;8.20;99.90;;;;;;4917146;29;20395;-85
2024/01/29 11:16:37;;;;;;;14.90;6.30;;;8.20;99.90;;;;;;4917551;29;20043;-86
2024/01/29 11:19:03;;;;;;;14.85;6.90;;;8.30;99.90;;;;;;4915026;29;20058;-86
2024/01/29 11:21:29;;;;;;;14.43;6.38;;;8.30;99.90;;;;;;4917719;29;20040;-86
2024/01/29 11:23:56;;;;;;;13.15;5.80;;;8.40;99.90;;;;;;4917845;29;20119;-87
2024/01/29 11:26:24;;;;;;;14.68;6.22;;;8.60;99.90;;;;;;4920525;29;20058;-86
2024/01/29 11:29:00;;;;;;;14.50;6.22;;;8.70;99.90;;;;;;4938256;29;20044;-84
2024/01/29 11:31:41;;;;;;;13.25;6.53;;;8.70;99.90;;;;;;4938751;29;20047;-88
2024/01/29 11:34:07;;;;;;;15.55;6.63;;;10.30;99.90;;;;;;4921194;29;20040;-87
2024/01/29 11:36:38;;;;;;;12.63;5.75;;;10.30;99.90;;;;;;4921541;29;20480;-89
2024/01/29 11:39:05;;;;;;;12.32;6.18;;;9.30;99.90;;;;;;4921266;29;20396;-86
2024/01/29 11:41:33;;;;;;;12.27;6.30;;;9.20;99.90;;;;;;4920616;29;20083;-87
2024/01/29 11:44:00;;;;;;;13.47;6.57;;;9.30;99.90;;;;;;4920573;29;20047;-90
2024/01/29 11:46:27;;;;;;;14.13;6.43;;;9.30;99.90;;;;;;4919948;29;20056;-87
2024/01/29 11:48:55;;;;;;;15.82;6.55;;;9.30;99.90;;;;;;4920321;29;20044;-87
2024/01/29 11:51:21;;;;;;;12.38;6.15;;;9.40;99.90;;;;;;4920629;29;20058;-87
2024/01/29 11:53:51;;;;;;;14.95;6.93;;;9.50;99.90;;;;;;4919955;29;20043;-87
2024/01/29 11:56:17;;;;;;;13.07;6.45;;;9.50;99.90;;;;;;4920988;29;20051;-86
2024/01/29 11:58:43;;;;;;;15.38;6.90;;;9.50;99.90;;;;;;4920545;29;20094;-86
2024/01/29 12:01:09;;;;;;;14.82;6.15;;;9.60;99.90;;;;;;4919945;29;20138;-87
2024/01/29 12:03:35;;;;;;;13.25;6.47;;;9.70;99.90;;;;;;4920721;29;20055;-86
2024/01/29 12:06:01;;;;;;;14.30;6.70;;;9.70;99.90;;;;;;4919996;29;20172;-86
2024/01/29 12:08:27;;;;;;;12.82;6.57;;;9.80;99.90;;;;;;4919759;29;20044;-86
2024/01/29 12:11:03;;;;;;;14.23;7.10;;;10.00;99.90;;;;;;4920024;29;20067;-86
2024/01/29 12:13:29;;;;;;;14.77;6.63;;;10.00;99.90;;;;;;4920021;29;20051;-87
2024/01/29 12:15:57;;;;;;;14.23;6.80;;;10.10;99.90;;;;;;4919694;29;20492;-86
2024/01/29 12:18:28;;;;;;;13.57;6.73;;;10.10;99.90;;;;;;4920382;29;20570;-86
2024/01/29 12:20:54;;;;;;;14.03;7.00;;;10.10;99.90;;;;;;4920126;29;20147;-87
2024/01/29 12:23:23;;;;;;;13.13;6.50;;;10.30;99.90;;;;;;4919279;29;20090;-86
2024/01/29 12:25:56;;;;;;;15.77;7.23;;;10.30;99.90;;;;;;4920378;29;20094;-86
2024/01/29 12:28:25;;;;;;;14.05;7.13;;;11.60;99.90;;;;;;4920960;29;20047;-86
2024/01/29 12:30:55;;;;;;;14.43;7.33;;;11.50;99.90;;;;;;4919902;29;20070;-87
2024/01/29 12:33:29;;;;;;;13.45;7.45;;;10.20;99.90;;;;;;4920165;29;20094;-87
2024/01/29 12:35:55;;;;;;;13.88;6.95;;;10.00;99.90;;;;;;4918564;29;20051;-87
2024/01/29 12:38:22;;;;;;;15.07;7.22;;;9.90;99.90;;;;;;4919862;29;20659;-87
2024/01/29 12:40:49;;;;;;;14.88;7.38;;;9.80;99.90;;;;;;4920092;29;20054;-87
2024/01/29 12:43:14;;;;;;;15.35;7.32;;;10.30;99.90;;;;;;4918948;29;20039;-87
2024/01/29 12:45:45;;;;;;;12.98;6.55;;;9.80;99.90;;;;;;4919980;29;20377;-87
2024/01/29 12:48:12;;;;;;;15.30;7.25;;;10.40;99.90;;;;;;4919911;29;20050;-87
2024/01/29 12:50:40;;;;;;;15.55;7.30;;;10.90;99.90;;;;;;4919084;29;20051;-87
2024/01/29 12:53:09;;;;;;;13.40;8.23;;;10.20;99.90;;;;;;4919405;29;20081;-87
2024/01/29 12:55:34;;;;;;;15.55;7.55;;;9.70;99.90;;;;;;4935743;29;20051;-87
2024/01/29 12:58:02;;;;;;;14.52;7.60;;;9.60;99.90;;;;;;4918346;29;20059;-86
2024/01/29 13:00:28;;;;;;;16.52;7.65;;;9.70;99.90;;;;;;4919468;29;20086;-87
2024/01/29 13:02:53;;;;;;;14.23;7.75;;;9.80;99.90;;;;;;4918915;29;20067;-86
2024/01/29 13:05:19;;;;;;;14.93;7.80;;;9.80;99.90;;;;;;4918426;29;20048;-87
2024/01/29 13:07:45;;;;;;;15.85;7.60;;;11.10;99.90;;;;;;4919081;29;20074;-87
2024/01/29 13:10:11;;;;;;;15.32;7.38;;;9.80;99.90;;;;;;4919360;29;20207;-87
2024/01/29 13:12:38;;;;;;;13.85;6.95;;;10.60;99.90;;;;;;4918931;29;20087;-87
2024/01/29 13:15:04;;;;;;;14.30;8.68;;;9.90;99.90;;;;;;4918935;29;20130;-87
2024/01/29 13:17:30;;;;;;;16.02;8.80;;;9.90;99.90;;;;;;4919256;29;20054;-87
2024/01/29 13:19:56;;;;;;;16.08;8.80;;;9.90;99.90;;;;;;4918520;29;20393;-87
2024/01/29 13:22:22;;;;;;;18.25;8.60;;;9.90;99.90;;;;;;4919011;29;20083;-87
2024/01/29 13:24:51;;;;;;;15.98;8.63;;;10.00;99.90;;;;;;4918718;29;20133;-87
2024/01/29 13:27:16;;;;;;;15.23;8.88;;;9.90;99.90;;;;;;4919208;29;20492;-87
2024/01/29 13:29:42;;;;;;;20.95;9.70;;;9.90;99.90;;;;;;4919606;29;20047;-87
2024/01/29 13:32:09;;;;;;;20.95;10.55;;;9.90;99.90;;;;;;4917834;29;20048;-87
2024/01/29 13:34:35;;;;;;;21.67;9.25;;;10.00;99.90;;;;;;4919002;29;20050;-87
2024/01/29 13:37:00;;;;;;;17.63;9.10;;;10.00;99.90;;;;;;4918792;29;20146;-87
2024/01/29 13:39:26;;;;;;;16.17;8.93;;;11.30;99.90;;;;;;4918410;29;20040;-87
2024/01/29 13:41:52;;;;;;;17.27;8.82;;;10.00;99.90;;;;;;4918459;29;20059;-87
2024/01/29 13:44:18;;;;;;;17.63;9.07;;;10.90;99.90;;;;;;4918830;29;20043;-86
2024/01/29 13:46:43;;;;;;;22.13;9.88;;;9.90;99.90;;;;;;4917221;29;20082;-87
2024/01/29 13:49:09;;;;;;;15.95;9.10;;;9.90;99.90;;;;;;4918599;29;20102;-87
2024/01/29 13:51:34;;;;;;;15.25;8.38;;;9.90;99.90;;;;;;4919042;29;20483;-86
2024/01/29 13:54:01;;;;;;;15.32;7.35;;;9.90;99.90;;;;;;4917608;29;20048;-86
2024/01/29 13:56:26;;;;;;;17.23;7.82;;;9.90;99.90;;;;;;4918764;29;20392;-86
2024/01/29 13:58:52;;;;;;;15.07;7.90;;;9.90;99.90;;;;;;4917835;29;20060;-86
2024/01/29 14:01:18;;;;;;;15.50;7.30;;;9.80;99.90;;;;;;4917926;29;20044;-87
2024/01/29 14:03:44;;;;;;;14.30;7.40;;;9.80;99.90;;;;;;4918267;29;20609;-87
2024/01/29 14:06:13;;;;;;;15.48;7.38;;;9.80;99.90;;;;;;4918016;29;20130;-87
2024/01/29 14:08:38;;;;;;;13.95;7.43;;;10.80;99.90;;;;;;4917823;29;20403;-87
2024/01/29 14:11:05;;;;;;;16.40;8.10;;;9.90;99.90;;;;;;4918167;29;20136;-87
2024/01/29 14:13:30;;;;;;;16.08;7.72;;;9.90;99.90;;;;;;4918622;29;20055;-87
2024/01/29 14:15:56;;;;;;;16.92;7.68;;;9.90;99.90;;;;;;4917269;29;20131;-87